createdAt,value
2023-01-04T00:01:17.044Z,99878.06
2023-01-04T00:03:18.908Z,99882.03
2023-01-04T00:05:20.573Z,99865.28
2023-01-04T00:07:22.550Z,99872.81
2023-01-04T00:09:27.344Z,99873.22
2023-01-04T00:11:28.898Z,99875.31
2023-01-04T00:13:34.130Z,99875.94
2023-01-04T00:15:35.728Z,99876.97
2023-01-04T00:17:37.479Z,99870.91
2023-01-04T00:19:39.091Z,99888.50
2023-01-04T00:21:41.121Z,99887.88
2023-01-04T00:23:44.209Z,99883.28
2023-01-04T00:25:45.839Z,99871.97
2023-01-04T00:27:47.410Z,99869.47
2023-01-04T00:29:48.987Z,99870.50
2023-01-04T00:31:51.252Z,99864.44
2023-01-04T00:33:57.274Z,99868.19
2023-01-04T00:36:07.238Z,99856.69
2023-01-04T00:38:09.196Z,99860.44
2023-01-04T00:40:13.469Z,99853.34
2023-01-04T00:42:15.292Z,99849.78
2023-01-04T00:44:19.115Z,99834.72
2023-01-04T00:46:20.584Z,99844.97
2023-01-04T00:48:22.530Z,99837.84
2023-01-04T00:50:24.012Z,99835.13
2023-01-04T00:52:26.047Z,99833.47
2023-01-04T00:54:28.126Z,99831.78
2023-01-04T00:56:30.733Z,99829.06
2023-01-04T00:58:32.319Z,99817.59
2023-01-04T01:00:38.081Z,99824.66
2023-01-04T01:02:39.978Z,99817.59
2023-01-04T01:04:41.696Z,99815.91
2023-01-04T01:06:46.775Z,99815.91
2023-01-04T01:08:48.623Z,99818.00
2023-01-04T01:10:53.343Z,99811.72
2023-01-04T01:12:54.972Z,99817.16
2023-01-04T01:15:02.475Z,99821.97
2023-01-04T01:17:11.310Z,99824.06
2023-01-04T01:19:13.901Z,99821.34
2023-01-04T01:21:19.020Z,99825.94
2023-01-04T01:23:23.702Z,99822.59
2023-01-04T01:25:27.662Z,99822.59
2023-01-04T01:27:29.429Z,99825.31
2023-01-04T01:29:31.189Z,99825.50
2023-01-04T01:31:32.835Z,99829.91
2023-01-04T01:33:42.992Z,99826.34
2023-01-04T01:35:44.679Z,99833.03
2023-01-04T01:37:46.298Z,99825.09
2023-01-04T01:39:47.892Z,99828.00
2023-01-04T01:41:49.431Z,99828.22
2023-01-04T01:44:13.188Z,99830.31
2023-01-04T01:46:15.981Z,99829.69
2023-01-04T01:48:23.645Z,99816.50
2023-01-04T01:50:39.805Z,99822.97
2023-01-04T01:52:41.621Z,99811.69
2023-01-04T01:54:47.082Z,99814.59
2023-01-04T01:56:51.322Z,99809.38
2023-01-04T01:58:55.936Z,99818.78
2023-01-04T02:01:37.580Z,99815.41
2023-01-04T02:03:42.280Z,99822.88
2023-01-04T02:06:21.990Z,99823.31
2023-01-04T02:08:26.936Z,99823.72
2023-01-04T02:10:28.591Z,99818.47
2023-01-04T02:12:30.365Z,99805.75
2023-01-04T02:14:32.266Z,99809.53
2023-01-04T02:16:52.996Z,99802.41
2023-01-04T02:19:42.101Z,99803.66
2023-01-04T02:22:01.426Z,99798.44
2023-01-04T02:24:35.189Z,99805.94
2023-01-04T02:26:56.085Z,99799.03
2023-01-04T02:29:10.214Z,99796.53
2023-01-04T02:31:37.769Z,99804.03
2023-01-04T02:33:49.868Z,99806.75
2023-01-04T02:36:02.983Z,99810.72
2023-01-04T02:38:17.333Z,99801.94
2023-01-04T02:40:26.865Z,99793.16
2023-01-04T02:43:15.548Z,99792.53
2023-01-04T02:45:22.604Z,99796.47
2023-01-04T02:47:57.782Z,99792.28
2023-01-04T02:50:21.017Z,99789.78
2023-01-04T02:52:23.791Z,99782.91
2023-01-04T02:54:30.879Z,99786.47
2023-01-04T02:57:05.973Z,99783.91
2023-01-04T02:59:40.500Z,99768.88
2023-01-04T03:02:22.487Z,99770.75
2023-01-04T03:04:45.796Z,99774.72
2023-01-04T03:06:58.596Z,99771.38
2023-01-04T03:09:18.214Z,99770.53
2023-01-04T03:11:38.455Z,99771.59
2023-01-04T03:13:45.900Z,99763.63
2023-01-04T03:16:11.936Z,99762.59
2023-01-04T03:18:22.687Z,99759.25
2023-01-04T03:20:28.805Z,99756.72
2023-01-04T03:22:56.690Z,99754.22
2023-01-04T03:25:18.050Z,99748.81
2023-01-04T03:27:42.725Z,99749.19
2023-01-04T03:30:09.637Z,99755.66
2023-01-04T03:32:32.372Z,99745.88
2023-01-04T03:34:52.778Z,99743.34
2023-01-04T03:37:20.722Z,99749.81
2023-01-04T03:39:50.073Z,99751.69
2023-01-04T03:42:15.857Z,99740.22
2023-01-04T03:44:48.679Z,99726.81
2023-01-04T03:47:15.389Z,99732.25
2023-01-04T03:49:27.621Z,99737.88
2023-01-04T03:51:34.707Z,99723.47
2023-01-04T03:53:42.824Z,99716.19
2023-01-04T03:55:48.632Z,99720.78
2023-01-04T03:57:50.911Z,99716.59
2023-01-04T04:00:01.395Z,99724.09
2023-01-04T04:02:03.031Z,99716.59
2023-01-04T04:04:26.187Z,99708.44
2023-01-04T04:06:48.935Z,99714.94
2023-01-04T04:08:50.355Z,99705.09
2023-01-04T04:10:52.163Z,99703.41
2023-01-04T04:12:59.248Z,99710.75
2023-01-04T04:15:00.849Z,99709.06
2023-01-04T04:17:02.612Z,99707.81
2023-01-04T04:19:08.578Z,99696.97
2023-01-04T04:21:12.966Z,99698.00
2023-01-04T04:23:14.652Z,99693.63
2023-01-04T04:25:22.308Z,99688.63
2023-01-04T04:27:24.664Z,99685.72
2023-01-04T04:29:26.157Z,99677.59
2023-01-04T04:31:36.413Z,99677.38
2023-01-04T04:33:38.280Z,99680.91
2023-01-04T04:35:39.889Z,99680.91
2023-01-04T04:37:42.575Z,99684.25
2023-01-04T04:39:44.183Z,99684.88
2023-01-04T04:41:45.802Z,99675.94
2023-01-04T04:43:47.268Z,99667.78
2023-01-04T04:45:48.971Z,99672.78
2023-01-04T04:47:50.492Z,99655.69
2023-01-04T04:49:54.406Z,99670.06
2023-01-04T04:51:56.055Z,99671.75
2023-01-04T04:53:57.660Z,99669.88
2023-01-04T04:55:59.634Z,99658.81
2023-01-04T04:58:03.811Z,99660.28
2023-01-04T05:00:06.062Z,99665.53
2023-01-04T05:02:07.719Z,99653.59
2023-01-04T05:04:14.204Z,99660.50
2023-01-04T05:06:16.199Z,99663.44
2023-01-04T05:08:20.841Z,99672.19
2023-01-04T05:10:22.435Z,99670.94
2023-01-04T05:12:43.059Z,99665.34
2023-01-04T05:14:44.692Z,99673.25
2023-01-04T05:16:46.377Z,99677.44
2023-01-04T05:18:56.731Z,99677.22
2023-01-04T05:20:58.614Z,99678.91
2023-01-04T05:23:00.263Z,99672.22
2023-01-04T05:25:01.847Z,99664.94
2023-01-04T05:27:03.370Z,99661.16
2023-01-04T05:29:04.915Z,99658.25
2023-01-04T05:31:09.752Z,99653.66
2023-01-04T05:33:12.141Z,99660.75
2023-01-04T05:35:18.968Z,99650.72
2023-01-04T05:37:20.529Z,99654.28
2023-01-04T05:39:22.169Z,99655.94
2023-01-04T05:41:42.918Z,99649.88
2023-01-04T05:43:44.436Z,99649.69
2023-01-04T05:45:54.972Z,99648.44
2023-01-04T05:47:59.508Z,99649.06
2023-01-04T05:50:01.609Z,99631.72
2023-01-04T05:52:03.265Z,99630.69
2023-01-04T05:54:07.474Z,99634.03
2023-01-04T05:56:09.177Z,99630.28
2023-01-04T05:58:10.708Z,99635.72
2023-01-04T06:00:15.077Z,99635.31
2023-01-04T06:02:25.723Z,99630.69
2023-01-04T06:04:27.427Z,99632.38
2023-01-04T06:06:29.383Z,99625.69
2023-01-04T06:08:30.941Z,99627.38
2023-01-04T06:10:32.495Z,99620.88
2023-01-04T06:12:36.487Z,99624.00
2023-01-04T06:14:46.975Z,99626.72
2023-01-04T06:16:48.748Z,99619.19
2023-01-04T06:18:54.986Z,99609.81
2023-01-04T06:21:01.317Z,99606.06
2023-01-04T06:23:03.006Z,99610.66
2023-01-04T06:25:08.342Z,99612.09
2023-01-04T06:27:10.000Z,99613.75
2023-01-04T06:29:12.089Z,99605.59
2023-01-04T06:31:14.234Z,99607.75
2023-01-04T06:33:15.827Z,99600.41
2023-01-04T06:35:17.562Z,99599.38
2023-01-04T06:37:19.219Z,99594.56
2023-01-04T06:39:20.762Z,99591.44
2023-01-04T06:41:25.240Z,99593.13
2023-01-04T06:43:26.708Z,99589.34
2023-01-04T06:45:28.706Z,99593.72
2023-01-04T06:47:30.458Z,99596.22
2023-01-04T06:49:32.058Z,99585.16
2023-01-04T06:51:33.600Z,99601.25
2023-01-04T06:53:35.080Z,99589.53
2023-01-04T06:55:37.278Z,99589.34
2023-01-04T06:57:38.849Z,99582.84
2023-01-04T06:59:40.578Z,99580.75
2023-01-04T07:01:42.214Z,99575.94
2023-01-04T07:03:43.754Z,99569.69
2023-01-04T07:05:45.624Z,99553.16
2023-01-04T07:07:47.258Z,99560.03
2023-01-04T07:09:48.857Z,99559.00
2023-01-04T07:11:50.578Z,99553.34
2023-01-04T07:13:52.909Z,99555.63
2023-01-04T07:15:56.276Z,99544.78
2023-01-04T07:17:57.981Z,99549.97
2023-01-04T07:19:59.617Z,99542.47
2023-01-04T07:22:04.312Z,99541.63
2023-01-04T07:24:05.922Z,99547.44
2023-01-04T07:26:10.004Z,99541.22
2023-01-04T07:28:11.626Z,99545.56
2023-01-04T07:30:14.198Z,99548.72
2023-01-04T07:32:16.770Z,99538.88
2023-01-04T07:34:23.158Z,99542.22
2023-01-04T07:36:24.799Z,99526.53
2023-01-04T07:38:26.331Z,99532.38
2023-01-04T07:40:27.936Z,99534.06
2023-01-04T07:42:29.773Z,99519.38
2023-01-04T07:44:31.380Z,99520.84
2023-01-04T07:46:34.214Z,99520.84
2023-01-04T07:48:35.904Z,99520.66
2023-01-04T07:50:37.573Z,99510.38
2023-01-04T07:52:39.323Z,99509.53
2023-01-04T07:54:43.175Z,99513.09
2023-01-04T07:56:46.061Z,99506.63
2023-01-04T07:58:57.060Z,99503.69
2023-01-04T08:01:19.562Z,99498.25
2023-01-04T08:03:24.577Z,99493.66
2023-01-04T08:05:31.631Z,99493.41
2023-01-04T08:07:33.215Z,99494.03
2023-01-04T08:09:34.787Z,99473.97
2023-01-04T08:11:39.092Z,99486.50
2023-01-04T08:13:41.544Z,99482.72
2023-01-04T08:15:53.032Z,99484.41
2023-01-04T08:17:56.799Z,99484.16
2023-01-04T08:19:58.494Z,99478.72
2023-01-04T08:22:00.173Z,99468.69
2023-01-04T08:24:07.449Z,99465.75
2023-01-04T08:26:12.877Z,99455.72
2023-01-04T08:28:14.512Z,99449.84
2023-01-04T08:30:16.356Z,99447.13
2023-01-04T08:32:18.104Z,99436.25
2023-01-04T08:34:19.672Z,99435.22
2023-01-04T08:36:26.727Z,99433.09
2023-01-04T08:38:59.218Z,99423.91
2023-01-04T08:41:00.083Z,99425.53
2023-01-04T08:43:03.657Z,99427.00
2023-01-04T08:45:06.217Z,99429.72
2023-01-04T08:47:08.259Z,99427.81
2023-01-04T08:49:09.930Z,99430.13
2023-01-04T08:51:14.386Z,99439.72
2023-01-04T08:53:19.029Z,99434.03
2023-01-04T08:55:23.536Z,99430.28
2023-01-04T08:57:27.688Z,99431.50
2023-01-04T08:59:29.860Z,99429.63
2023-01-04T09:01:32.843Z,99435.47
2023-01-04T09:03:35.759Z,99430.19
2023-01-04T09:05:37.572Z,99434.56
2023-01-04T09:07:44.992Z,99438.72
2023-01-04T09:09:46.669Z,99433.09
2023-01-04T09:11:49.407Z,99435.13
2023-01-04T09:14:06.836Z,99439.50
2023-01-04T09:16:12.966Z,99445.34
2023-01-04T09:18:31.962Z,99434.47
2023-01-04T09:20:33.903Z,99438.19
2023-01-04T09:22:36.057Z,99433.34
2023-01-04T09:24:37.686Z,99427.66
2023-01-04T09:26:39.148Z,99426.38
2023-01-04T09:28:41.984Z,99419.47
2023-01-04T09:30:43.681Z,99417.59
2023-01-04T09:32:45.456Z,99429.91
2023-01-04T09:34:47.433Z,99428.84
2023-01-04T09:36:49.209Z,99434.28
2023-01-04T09:38:52.295Z,99430.88
2023-01-04T09:40:57.713Z,99427.94
2023-01-04T09:43:21.211Z,99428.94
2023-01-04T09:45:26.983Z,99425.75
2023-01-04T09:47:56.447Z,99417.16
2023-01-04T09:50:05.089Z,99419.41
2023-01-04T09:52:27.693Z,99416.47
2023-01-04T09:54:40.814Z,99410.97
2023-01-04T09:56:53.477Z,99421.41
2023-01-04T09:58:56.037Z,99422.16
2023-01-04T10:01:11.694Z,99420.28
2023-01-04T10:03:36.634Z,99415.19
2023-01-04T10:05:38.577Z,99415.00
2023-01-04T10:07:40.106Z,99409.69
2023-01-04T10:09:41.660Z,99412.22
2023-01-04T10:11:49.679Z,99400.63
2023-01-04T10:14:17.108Z,99404.56
2023-01-04T10:17:14.860Z,99397.22
2023-01-04T10:22:06.887Z,99377.09
2023-01-04T10:24:25.670Z,99384.56
2023-01-04T10:26:27.731Z,99379.50
2023-01-04T10:28:54.288Z,99366.03
2023-01-04T10:31:40.492Z,99364.50
2023-01-04T10:33:50.447Z,99359.66
2023-01-04T10:36:00.562Z,99342.81
2023-01-04T10:38:10.107Z,99345.34
2023-01-04T10:40:20.275Z,99352.81
2023-01-04T10:42:34.193Z,99347.38
2023-01-04T10:45:08.618Z,99344.78
2023-01-04T10:47:20.044Z,99342.44
2023-01-04T10:49:46.009Z,99332.72
2023-01-04T10:51:57.299Z,99323.47
2023-01-04T10:54:06.632Z,99316.72
2023-01-04T10:56:27.206Z,99310.19
2023-01-04T10:58:52.371Z,99310.56
2023-01-04T11:01:03.921Z,99302.72
2023-01-04T11:03:19.110Z,99304.16
2023-01-04T11:05:29.731Z,99306.69
2023-01-04T11:07:39.688Z,99301.81
2023-01-04T11:10:10.885Z,99300.50
2023-01-04T11:12:15.689Z,99300.06
2023-01-04T11:14:17.725Z,99302.53
2023-01-04T11:16:19.963Z,99290.31
2023-01-04T11:18:22.002Z,99289.59
2023-01-04T11:20:26.857Z,99284.53
2023-01-04T11:22:49.640Z,99277.75
2023-01-04T11:27:27.261Z,99290.22
2023-01-04T11:29:50.057Z,99281.78
2023-01-04T11:31:57.038Z,99278.59
2023-01-04T11:33:59.932Z,99284.63
2023-01-04T11:36:02.964Z,99278.50
2023-01-04T11:40:28.657Z,99278.63
2023-01-04T11:42:31.621Z,99269.72
2023-01-04T11:44:35.022Z,99265.41
2023-01-04T11:46:39.836Z,99268.50
2023-01-04T11:48:44.161Z,99257.59
2023-01-04T11:50:55.841Z,99248.44
2023-01-04T11:52:57.274Z,99252.34
2023-01-04T11:55:23.931Z,99245.81
2023-01-04T11:57:28.437Z,99243.44
2023-01-04T11:59:30.094Z,99233.94
2023-01-04T12:01:35.175Z,99223.38
2023-01-04T12:03:39.281Z,99223.38
2023-01-04T12:05:41.396Z,99227.28
2023-01-04T12:07:43.266Z,99213.97
2023-01-04T12:09:44.971Z,99217.28
2023-01-04T12:11:53.198Z,99215.75
2023-01-04T12:13:54.970Z,99221.00
2023-01-04T12:16:11.458Z,99206.84
2023-01-04T12:18:22.818Z,99208.28
2023-01-04T12:20:27.905Z,99207.75
2023-01-04T12:22:40.996Z,99205.38
2023-01-04T12:24:46.046Z,99203.81
2023-01-04T12:26:48.670Z,99207.75
2023-01-04T12:29:24.636Z,99201.78
2023-01-04T12:31:34.925Z,99204.00
2023-01-04T12:33:38.212Z,99196.44
2023-01-04T12:35:59.711Z,99197.59
2023-01-04T12:38:02.485Z,99194.94
2023-01-04T12:40:42.857Z,99191.72
2023-01-04T12:43:16.716Z,99193.72
2023-01-04T12:45:22.565Z,99191.34
2023-01-04T12:47:45.796Z,99176.34
2023-01-04T12:49:57.680Z,99175.03
2023-01-04T12:54:46.669Z,99149.66
2023-01-04T12:57:17.086Z,99149.19
2023-01-04T12:59:33.408Z,99157.69
2023-01-04T13:01:36.580Z,99154.47
2023-01-04T13:03:48.006Z,99155.03
2023-01-04T13:06:04.211Z,99146.09
2023-01-04T13:08:11.397Z,99144.75
2023-01-04T13:10:19.132Z,99152.41
2023-01-04T13:12:42.398Z,99150.84
2023-01-04T13:14:49.477Z,99161.88
2023-01-04T13:17:13.109Z,99151.50
2023-01-04T13:19:28.710Z,99134.59
2023-01-04T13:21:39.325Z,99133.00
2023-01-04T13:23:50.038Z,99140.22
2023-01-04T13:25:52.864Z,99131.47
2023-01-04T13:28:05.177Z,99114.84
2023-01-04T13:30:07.021Z,99090.53
2023-01-04T13:32:29.988Z,99091.94
2023-01-04T13:34:53.315Z,99093.94
2023-01-04T13:37:02.990Z,99101.63
2023-01-04T13:39:07.632Z,99108.25
2023-01-04T13:41:21.327Z,99093.50
2023-01-04T13:43:44.503Z,99118.19
2023-01-04T13:46:06.721Z,99111.13
2023-01-04T13:48:14.540Z,99105.19
2023-01-04T13:50:40.421Z,99112.63
2023-01-04T13:52:56.474Z,99116.50
2023-01-04T13:55:21.024Z,99104.22
2023-01-04T13:57:22.781Z,99098.00
2023-01-04T13:59:24.633Z,99098.28
2023-01-04T14:01:38.924Z,99099.69
2023-01-04T14:03:53.611Z,99100.25
2023-01-04T14:06:03.023Z,99102.25
2023-01-04T14:08:11.685Z,99097.59
2023-01-04T14:10:18.903Z,99098.75
2023-01-04T14:12:24.947Z,99104.53
2023-01-04T14:15:00.463Z,99103.44
2023-01-04T14:17:44.467Z,99096.63
2023-01-04T14:19:56.785Z,99092.56
2023-01-04T14:21:58.484Z,99088.47
2023-01-04T14:24:00.116Z,99082.72
2023-01-04T14:26:02.006Z,99088.19
2023-01-04T14:28:19.253Z,99076.44
2023-01-04T14:30:20.953Z,99087.13
2023-01-04T14:32:22.890Z,99075.66
2023-01-04T14:34:24.464Z,99072.38
2023-01-04T14:36:32.428Z,99069.34
2023-01-04T14:38:38.846Z,99057.31
2023-01-04T14:40:41.295Z,99061.69
2023-01-04T14:42:42.911Z,99057.06
2023-01-04T14:44:45.943Z,99051.84
2023-01-04T14:46:56.223Z,99047.16
2023-01-04T14:48:58.922Z,99049.63
2023-01-04T14:51:01.036Z,99055.38
2023-01-04T14:53:02.675Z,99049.09
2023-01-04T14:55:05.670Z,99045.53
2023-01-04T14:57:08.823Z,99043.63
2023-01-04T14:59:10.785Z,99042.53
2023-01-04T15:01:13.062Z,99039.28
2023-01-04T15:03:14.937Z,99032.13
2023-01-04T15:05:16.680Z,99030.22
2023-01-04T15:07:35.483Z,99030.22
2023-01-04T15:09:37.209Z,99026.97
2023-01-04T15:11:42.564Z,99022.56
2023-01-04T15:13:44.372Z,99020.66
2023-01-04T15:15:46.068Z,99021.50
2023-01-04T15:17:48.503Z,99014.09
2023-01-04T15:19:53.143Z,99014.34
2023-01-04T15:21:54.764Z,99012.44
2023-01-04T15:23:56.255Z,99017.09
2023-01-04T15:25:58.064Z,99016.84
2023-01-04T15:27:59.705Z,99008.06
2023-01-04T15:30:01.535Z,99006.72
2023-01-04T15:32:03.197Z,99008.34
2023-01-04T15:34:07.539Z,99008.34
2023-01-04T15:36:13.620Z,99010.03
2023-01-04T15:38:18.528Z,99010.03
2023-01-04T15:40:23.025Z,98993.59
2023-01-04T15:42:46.399Z,99001.53
2023-01-04T15:44:47.949Z,98994.41
2023-01-04T15:46:51.383Z,98994.41
2023-01-04T15:49:01.622Z,98988.94
2023-01-04T15:51:06.993Z,98986.19
2023-01-04T15:53:16.872Z,98980.97
2023-01-04T15:55:20.567Z,98984.53
2023-01-04T15:57:22.143Z,98982.13
2023-01-04T15:59:24.459Z,98974.97
2023-01-04T16:01:26.252Z,98987.59
2023-01-04T16:03:27.995Z,98987.59
2023-01-04T16:05:39.732Z,98983.47
2023-01-04T16:07:41.317Z,98974.97
2023-01-04T16:09:42.990Z,98980.44
2023-01-04T16:12:09.034Z,98965.09
2023-01-04T16:14:10.574Z,98974.66
2023-01-04T16:16:13.038Z,98969.44
2023-01-04T16:18:17.822Z,98979.56
2023-01-04T16:20:20.325Z,98971.88
2023-01-04T16:22:29.098Z,98972.69
2023-01-04T16:25:09.423Z,98971.06
2023-01-04T16:26:52.450Z,98983.94
2023-01-04T16:28:58.378Z,98982.03
2023-01-04T16:31:00.543Z,98988.56
2023-01-04T16:33:05.000Z,98974.88
2023-01-04T16:35:18.690Z,98975.94
2023-01-04T16:37:20.685Z,98975.72
2023-01-04T16:39:42.038Z,98975.72
2023-01-04T16:41:44.987Z,98970.75
2023-01-04T16:43:49.172Z,98966.63
2023-01-04T16:45:50.800Z,98965.28
2023-01-04T16:47:54.040Z,98966.09
2023-01-04T16:49:58.866Z,98968.84
2023-01-04T16:52:05.459Z,98960.06
2023-01-04T16:54:12.347Z,98959.47
2023-01-04T16:56:16.188Z,98963.31
2023-01-04T16:58:18.142Z,98960.81
2023-01-04T17:00:19.923Z,98960.00
2023-01-04T17:02:23.054Z,98970.13
2023-01-04T17:04:25.167Z,98961.09
2023-01-04T17:06:36.006Z,98961.38
2023-01-04T17:08:37.537Z,98955.06
2023-01-04T17:10:39.438Z,98947.91
2023-01-04T17:12:47.693Z,98949.00
2023-01-04T17:15:08.027Z,98950.09
2023-01-04T17:17:15.572Z,98935.31
2023-01-04T17:19:18.018Z,98951.75
2023-01-04T17:21:35.676Z,98943.53
2023-01-04T17:23:47.717Z,98940.81
2023-01-04T17:25:55.379Z,98941.88
2023-01-04T17:27:58.445Z,98940.22
2023-01-04T17:30:02.460Z,98928.19
2023-01-04T17:32:04.422Z,98929.84
2023-01-04T17:34:08.291Z,98929.25
2023-01-04T17:36:15.675Z,98925.44
2023-01-04T17:38:18.577Z,98921.88
2023-01-04T17:40:23.184Z,98919.69
2023-01-04T17:42:25.259Z,98919.69
2023-01-04T17:44:27.066Z,98913.97
2023-01-04T17:46:35.885Z,98916.16
2023-01-04T17:48:37.739Z,98918.63
2023-01-04T17:50:42.008Z,98911.47
2023-01-04T17:52:43.809Z,98915.03
2023-01-04T17:54:45.521Z,98924.66
2023-01-04T17:56:47.198Z,98908.22
2023-01-04T17:58:48.651Z,98898.09
2023-01-04T18:00:50.337Z,98914.53
2023-01-04T18:02:51.937Z,98897.03
2023-01-04T18:04:53.908Z,98895.09
2023-01-04T18:06:57.394Z,98904.13
2023-01-04T18:09:04.506Z,98884.72
2023-01-04T18:11:08.299Z,98901.94
2023-01-04T18:13:10.312Z,98901.94
2023-01-04T18:15:14.450Z,98905.28
2023-01-04T18:17:16.084Z,98900.34
2023-01-04T18:19:17.682Z,98897.63
2023-01-04T18:21:30.050Z,98906.91
2023-01-04T18:23:31.910Z,98905.84
2023-01-04T18:25:34.450Z,98894.88
2023-01-04T18:27:38.977Z,98897.34
2023-01-04T18:29:40.739Z,98906.41
2023-01-04T18:31:42.198Z,98900.66
2023-01-04T18:33:51.941Z,98889.69
2023-01-04T18:35:53.681Z,98889.44
2023-01-04T18:38:01.054Z,98903.97
2023-01-04T18:40:04.398Z,98893.81
2023-01-04T18:42:13.300Z,98898.22
2023-01-04T18:46:42.093Z,98903.69
2023-01-04T18:48:48.746Z,98894.66
2023-01-04T18:50:53.535Z,98902.34
2023-01-04T18:52:57.518Z,98903.41
2023-01-04T18:54:59.110Z,98901.78
2023-01-04T18:57:07.853Z,98904.53
2023-01-04T18:59:09.997Z,98891.66
2023-01-04T19:01:16.676Z,98896.31
2023-01-04T19:03:24.250Z,98901.78
2023-01-04T19:05:27.745Z,98890.00
2023-01-04T19:07:32.072Z,98896.03
2023-01-04T19:09:33.750Z,98878.53
2023-01-04T19:11:36.290Z,98878.53
2023-01-04T19:13:38.983Z,98868.41
2023-01-04T19:15:47.657Z,98871.94
2023-01-04T19:17:49.743Z,98858.50
2023-01-04T19:19:52.983Z,98861.25
2023-01-04T19:21:54.516Z,98869.47
2023-01-04T19:23:56.600Z,98874.69
2023-01-04T19:25:58.409Z,98879.34
2023-01-04T19:28:00.081Z,98868.63
2023-01-04T19:30:01.928Z,98877.41
2023-01-04T19:32:05.022Z,98878.25
2023-01-04T19:34:08.804Z,98884.28
2023-01-04T19:36:12.598Z,98885.94
2023-01-04T19:38:17.461Z,98890.06
2023-01-04T19:40:19.167Z,98893.09
2023-01-04T19:42:20.645Z,98887.34
2023-01-04T19:44:23.813Z,98888.16
2023-01-04T19:46:25.503Z,98883.50
2023-01-04T19:48:27.410Z,98887.06
2023-01-04T19:50:31.628Z,98888.44
2023-01-04T19:52:37.520Z,98885.19
2023-01-04T19:54:45.271Z,98881.59
2023-01-04T19:56:49.255Z,98879.69
2023-01-04T19:58:51.085Z,98891.19
2023-01-04T20:00:55.342Z,98886.81
2023-01-04T20:02:57.084Z,98884.31
2023-01-04T20:05:01.856Z,98893.38
2023-01-04T20:07:03.591Z,98893.38
2023-01-04T20:09:05.477Z,98898.03
2023-01-04T20:11:08.009Z,98902.69
2023-01-04T20:13:09.689Z,98894.72
2023-01-04T20:15:14.071Z,98898.56
2023-01-04T20:17:16.182Z,98893.09
2023-01-04T20:19:22.355Z,98895.56
2023-01-04T20:21:24.198Z,98893.88
2023-01-04T20:23:32.763Z,98887.59
2023-01-04T20:25:38.922Z,98882.38
2023-01-04T20:27:41.473Z,98896.34
2023-01-04T20:29:42.953Z,98887.03
2023-01-04T20:31:45.907Z,98890.03
2023-01-04T20:33:47.849Z,98884.56
2023-01-04T20:35:52.489Z,98892.78
2023-01-04T20:37:59.731Z,98896.59
2023-01-04T20:40:01.348Z,98890.88
2023-01-04T20:42:25.283Z,98877.41
2023-01-04T20:44:30.109Z,98889.47
2023-01-04T20:46:32.970Z,98877.69
2023-01-04T20:48:34.669Z,98883.16
2023-01-04T20:50:36.376Z,98886.75
2023-01-04T20:52:37.801Z,98892.22
2023-01-04T20:54:39.378Z,98901.28
2023-01-04T20:56:41.294Z,98898.53
2023-01-04T20:58:47.754Z,98912.22
2023-01-04T21:00:49.598Z,98928.06
2023-01-04T21:02:52.167Z,98908.66
2023-01-04T21:04:58.456Z,98911.41
2023-01-04T21:07:00.098Z,98896.59
2023-01-04T21:09:01.748Z,98888.13
2023-01-04T21:11:04.652Z,98893.34
2023-01-04T21:13:07.617Z,98881.53
2023-01-04T21:15:09.531Z,98877.72
2023-01-04T21:17:11.285Z,98859.06
2023-01-04T21:19:15.612Z,98858.81
2023-01-04T21:21:21.193Z,98849.78
2023-01-04T21:23:25.415Z,98848.66
2023-01-04T21:25:27.384Z,98848.66
2023-01-04T21:27:31.358Z,98852.25
2023-01-04T21:29:33.221Z,98841.56
2023-01-04T21:31:35.660Z,98836.31
2023-01-04T21:33:37.835Z,98829.50
2023-01-04T21:35:40.577Z,98820.47
2023-01-04T21:37:42.329Z,98834.97
2023-01-04T21:39:43.918Z,98824.84
2023-01-04T21:41:48.248Z,98829.50
2023-01-04T21:43:51.741Z,98824.00
2023-01-04T21:45:53.378Z,98839.38
2023-01-04T21:47:55.376Z,98831.16
2023-01-04T21:49:57.465Z,98827.59
2023-01-04T21:51:59.352Z,98820.19
2023-01-04T21:54:01.810Z,98824.84
2023-01-04T21:56:08.697Z,98815.78
2023-01-04T21:58:10.317Z,98811.16
2023-01-04T22:00:15.233Z,98819.91
2023-01-04T22:02:19.135Z,98825.16
2023-01-04T22:04:23.370Z,98829.78
2023-01-04T22:06:27.976Z,98836.09
2023-01-04T22:08:30.252Z,98834.19
2023-01-04T22:10:34.392Z,98844.06
2023-01-04T22:12:36.307Z,98823.78
2023-01-04T22:14:38.235Z,98826.25
2023-01-04T22:16:40.031Z,98825.41
2023-01-04T22:18:46.039Z,98830.38
2023-01-04T22:21:00.490Z,98825.19
2023-01-04T22:23:02.262Z,98827.38
2023-01-04T22:25:04.017Z,98850.66
2023-01-04T22:27:05.694Z,98837.53
2023-01-04T22:29:13.161Z,98833.94
2023-01-04T22:31:15.286Z,98820.25
2023-01-04T22:33:20.091Z,98809.28
2023-01-04T22:35:22.173Z,98806.28
2023-01-04T22:37:23.936Z,98818.06
2023-01-04T22:39:28.543Z,98805.19
2023-01-04T22:41:30.095Z,98817.81
2023-01-04T22:43:31.819Z,98812.06
2023-01-04T22:45:33.571Z,98808.78
2023-01-04T22:47:36.105Z,98810.69
2023-01-04T22:49:39.978Z,98818.09
2023-01-04T22:51:43.002Z,98810.69
2023-01-04T22:53:47.159Z,98808.50
2023-01-04T22:58:11.046Z,98799.75
2023-01-04T23:00:14.773Z,98788.78
2023-01-04T23:02:17.709Z,98789.59
2023-01-04T23:04:19.818Z,98787.69
2023-01-04T23:06:22.425Z,98792.06
2023-01-04T23:08:26.933Z,98787.41
2023-01-04T23:10:28.576Z,98789.09
2023-01-04T23:12:33.265Z,98793.72
2023-01-04T23:14:35.018Z,98793.72
2023-01-04T23:16:36.815Z,98793.72
2023-01-04T23:18:38.938Z,98792.34
2023-01-04T23:20:40.535Z,98792.06
2023-01-04T23:22:45.196Z,98789.88
2023-01-04T23:24:48.645Z,98783.59
2023-01-04T23:26:52.430Z,98792.38
2023-01-04T23:28:57.979Z,98787.72
2023-01-04T23:31:07.780Z,98777.56
2023-01-04T23:33:10.666Z,98780.31
2023-01-04T23:35:12.548Z,98791.53
2023-01-04T23:37:15.422Z,98787.72
2023-01-04T23:39:17.118Z,98790.47
2023-01-04T23:41:19.015Z,98789.09
2023-01-04T23:43:20.585Z,98786.38
2023-01-04T23:45:26.239Z,98783.63
2023-01-04T23:47:27.962Z,98772.38
2023-01-04T23:49:31.275Z,98777.03
2023-01-04T23:51:34.289Z,98770.72
2023-01-04T23:53:36.007Z,98775.94
2023-01-04T23:55:37.815Z,98769.63
2023-01-04T23:57:39.632Z,98767.97
2023-01-04T23:59:41.335Z,98755.09
